Time;durP1;ratioP1;P1;durP2;ratioP2;P2;SDS_P1;SDS_P2;PMS_P1;PMS_P2;Temp;Humidity;BMP_temperature;BMP_pressure;BME280_temperature;BME280_humidity;BME280_pressure;Samples;Min_cycle;Max_cycle;Signal;HPM_P1;HPM_P2
2022/08/14 00:00:40;;;;;;;11.33;7.80;;;22.20;99.90;;;;;;5112429;28;20470;-76
2022/08/14 00:03:06;;;;;;;10.63;7.80;;;22.20;99.90;;;;;;5112021;27;20108;-75
2022/08/14 00:05:31;;;;;;;16.60;7.77;;;22.30;99.90;;;;;;5112099;28;20504;-76
2022/08/14 00:07:57;;;;;;;11.73;7.40;;;22.30;99.90;;;;;;5112030;28;20034;-76
2022/08/14 00:10:23;;;;;;;10.13;7.30;;;22.20;99.90;;;;;;5110787;28;20483;-75
2022/08/14 00:12:52;;;;;;;14.05;8.05;;;22.20;99.90;;;;;;5111846;28;20041;-75
2022/08/14 00:15:28;;;;;;;9.57;6.88;;;22.30;99.90;;;;;;5111445;28;20039;-74
2022/08/14 00:17:54;;;;;;;10.55;7.32;;;22.20;99.90;;;;;;5112005;28;20047;-75
2022/08/14 00:20:23;;;;;;;11.17;7.30;;;22.30;99.90;;;;;;5109981;28;20067;-75
2022/08/14 00:22:49;;;;;;;10.80;6.97;;;22.40;99.90;;;;;;5111713;28;20080;-75
2022/08/14 00:25:15;;;;;;;13.87;7.80;;;22.30;99.90;;;;;;5110717;28;20035;-74
2022/08/14 00:27:41;;;;;;;11.73;7.57;;;22.30;99.90;;;;;;5110664;28;20106;-75
2022/08/14 00:30:09;;;;;;;10.30;8.10;;;22.30;99.90;;;;;;5111636;28;20031;-75
2022/08/14 00:32:35;;;;;;;14.00;9.07;;;22.20;99.90;;;;;;5110004;28;20131;-75
2022/08/14 00:35:01;;;;;;;9.33;7.17;;;22.20;99.90;;;;;;5112255;28;20122;-75
2022/08/14 00:37:28;;;;;;;10.65;7.18;;;22.20;99.90;;;;;;5110082;28;20123;-75
2022/08/14 00:39:53;;;;;;;11.85;7.35;;;22.10;99.90;;;;;;5112124;28;20028;-76
2022/08/14 00:42:21;;;;;;;10.90;7.33;;;22.10;99.90;;;;;;5111528;28;20560;-75
2022/08/14 00:44:46;;;;;;;11.18;7.43;;;22.10;99.90;;;;;;5111120;28;20056;-75
2022/08/14 00:47:15;;;;;;;11.27;7.88;;;22.10;99.90;;;;;;5111374;28;20031;-75
2022/08/14 00:49:42;;;;;;;12.27;7.43;;;22.10;99.90;;;;;;5109848;28;20589;-75
2022/08/14 00:52:12;;;;;;;9.82;7.30;;;22.10;99.90;;;;;;5111369;28;20019;-75
2022/08/14 00:54:39;;;;;;;11.57;7.47;;;22.10;99.90;;;;;;5110677;28;20491;-76
2022/08/14 00:57:04;;;;;;;9.88;7.07;;;22.00;99.90;;;;;;5111392;28;20047;-76
2022/08/14 00:59:30;;;;;;;10.70;7.20;;;22.00;99.90;;;;;;5111774;28;20087;-75
2022/08/14 01:01:58;;;;;;;9.83;6.83;;;22.00;99.90;;;;;;5111093;28;20031;-74
2022/08/14 01:04:25;;;;;;;12.55;7.53;;;21.90;99.90;;;;;;5091092;28;20028;-75
2022/08/14 01:06:51;;;;;;;11.05;7.72;;;21.90;99.90;;;;;;5089685;28;20043;-75
2022/08/14 01:09:23;;;;;;;9.77;7.30;;;21.90;99.90;;;;;;5091136;28;20042;-75
2022/08/14 01:11:52;;;;;;;9.98;7.22;;;21.90;99.90;;;;;;5090849;28;20065;-75
2022/08/14 01:14:19;;;;;;;10.70;7.55;;;21.90;99.90;;;;;;5106032;28;20159;-75
2022/08/14 01:16:48;;;;;;;11.13;7.32;;;22.00;99.90;;;;;;5111291;28;20023;-75
2022/08/14 01:21:58;;;;;;;10.25;7.22;;;21.90;99.90;;;;;;5111442;28;20053;-75
2022/08/14 01:24:24;;;;;;;10.70;6.77;;;21.80;99.90;;;;;;5110682;28;20027;-76
2022/08/14 01:26:52;;;;;;;13.23;7.88;;;21.80;99.90;;;;;;5109634;28;20028;-76
2022/08/14 01:29:18;;;;;;;13.90;7.10;;;21.80;99.90;;;;;;5111211;28;20129;-75
2022/08/14 01:31:51;;;;;;;10.43;7.13;;;21.80;99.90;;;;;;5109148;28;20110;-75
2022/08/14 01:34:19;;;;;;;12.35;8.20;;;21.80;99.90;;;;;;5111332;27;20403;-76
2022/08/14 01:36:45;;;;;;;12.98;8.00;;;21.80;99.90;;;;;;5110878;28;20031;-76
2022/08/14 01:39:13;;;;;;;12.67;7.47;;;21.80;99.90;;;;;;5109506;28;20027;-75
2022/08/14 01:41:41;;;;;;;12.00;7.57;;;21.70;99.90;;;;;;5110802;28;20073;-75
2022/08/14 01:44:12;;;;;;;10.98;7.80;;;21.70;99.90;;;;;;5110755;28;20020;-76
2022/08/14 01:46:39;;;;;;;11.45;7.97;;;21.70;99.90;;;;;;5111140;28;20101;-76
2022/08/14 01:49:10;;;;;;;12.10;8.35;;;21.70;99.90;;;;;;5090718;28;20040;-75
2022/08/14 01:51:38;;;;;;;12.32;7.50;;;21.60;99.90;;;;;;5090786;28;20035;-76
2022/08/14 01:54:08;;;;;;;10.23;7.57;;;21.60;99.90;;;;;;5105090;28;20016;-75
2022/08/14 01:56:36;;;;;;;9.82;7.30;;;21.60;99.90;;;;;;5111025;28;20057;-75
2022/08/14 01:59:08;;;;;;;8.75;6.68;;;21.60;99.90;;;;;;5111195;28;20406;-75
2022/08/14 02:01:34;;;;;;;11.57;7.82;;;21.60;99.90;;;;;;5110308;28;20490;-75
2022/08/14 02:04:01;;;;;;;;;;;21.60;99.90;;;;;;5109687;28;20490;-75
2022/08/14 02:06:27;;;;;;;12.13;7.50;;;21.60;99.90;;;;;;5109265;28;20375;-75
2022/08/14 02:08:53;;;;;;;9.88;7.07;;;21.60;99.90;;;;;;5110428;28;20034;-74
2022/08/14 02:11:22;;;;;;;12.37;7.73;;;21.60;99.90;;;;;;5110373;28;20031;-74
2022/08/14 02:14:03;;;;;;;13.88;8.13;;;21.60;99.90;;;;;;5110243;28;20114;-75
2022/08/14 02:16:37;;;;;;;10.80;7.50;;;21.50;99.90;;;;;;5109136;28;20437;-75
2022/08/14 02:19:06;;;;;;;11.32;7.15;;;21.50;99.90;;;;;;5110182;28;20102;-75
2022/08/14 02:21:32;;;;;;;9.80;7.30;;;21.50;99.90;;;;;;5109035;28;20114;-75
2022/08/14 02:24:01;;;;;;;10.80;7.87;;;21.50;99.90;;;;;;5109871;28;20110;-75
2022/08/14 02:26:36;;;;;;;11.52;6.97;;;21.50;99.90;;;;;;5109365;28;20103;-75
2022/08/14 02:29:11;;;;;;;13.10;7.47;;;21.50;99.90;;;;;;5110530;28;20366;-76
2022/08/14 02:31:41;;;;;;;9.75;7.47;;;21.40;99.90;;;;;;5108528;28;20475;-75
2022/08/14 02:34:12;;;;;;;12.25;6.88;;;21.40;99.90;;;;;;5110409;28;20034;-74
2022/08/14 02:36:39;;;;;;;10.73;6.80;;;21.40;99.90;;;;;;5110068;28;20031;-75
2022/08/14 02:39:09;;;;;;;;;;;21.40;99.90;;;;;;5109106;28;20024;-76
2022/08/14 02:41:36;;;;;;;9.35;6.53;;;21.40;99.90;;;;;;5109535;28;20311;-76
2022/08/14 02:44:03;;;;;;;10.50;7.40;;;21.30;99.90;;;;;;5110201;28;20407;-75
2022/08/14 02:46:32;;;;;;;11.65;6.85;;;21.30;99.90;;;;;;5108577;28;20053;-75
2022/08/14 02:48:58;;;;;;;10.27;6.82;;;21.30;99.90;;;;;;5109157;28;20122;-74
2022/08/14 02:51:25;;;;;;;10.05;7.15;;;21.30;99.90;;;;;;5113301;28;20020;-75
2022/08/14 02:53:53;;;;;;;11.15;6.82;;;21.30;99.90;;;;;;5113580;28;20076;-75
2022/08/14 02:56:19;;;;;;;12.15;6.50;;;21.30;99.90;;;;;;5111972;28;20024;-75
2022/08/14 02:58:48;;;;;;;12.55;6.80;;;21.20;99.90;;;;;;5113591;28;20486;-75
2022/08/14 03:01:19;;;;;;;9.43;7.32;;;21.30;99.90;;;;;;5095157;28;20069;-74
2022/08/14 03:03:47;;;;;;;10.20;7.07;;;21.30;99.90;;;;;;5111951;28;20039;-75
2022/08/14 03:06:13;;;;;;;9.90;6.97;;;21.20;99.90;;;;;;5113543;28;20091;-75
2022/08/14 03:08:40;;;;;;;;;;;21.20;99.90;;;;;;5113906;28;20477;-76
2022/08/14 03:11:08;;;;;;;11.63;7.03;;;21.20;99.90;;;;;;5112201;27;19922;-74
2022/08/14 03:13:35;;;;;;;9.63;6.80;;;21.20;99.90;;;;;;5113350;28;20409;-74
2022/08/14 03:16:03;;;;;;;10.32;7.03;;;21.10;99.90;;;;;;5113159;28;20468;-75
2022/08/14 03:18:29;;;;;;;8.95;6.72;;;21.20;99.90;;;;;;5113488;28;20157;-74
2022/08/14 03:20:55;;;;;;;9.00;6.47;;;21.10;99.90;;;;;;5112774;28;20031;-75
2022/08/14 03:23:21;;;;;;;12.33;6.57;;;21.20;99.90;;;;;;5111709;28;20069;-75
2022/08/14 03:25:46;;;;;;;10.97;6.00;;;21.10;99.90;;;;;;5112928;28;20503;-75
2022/08/14 03:28:13;;;;;;;10.00;6.77;;;21.10;99.90;;;;;;5113378;28;20077;-75
2022/08/14 03:30:39;;;;;;;11.20;6.97;;;21.10;99.90;;;;;;5112865;28;20416;-74
2022/08/14 03:33:06;;;;;;;9.10;6.47;;;21.10;99.90;;;;;;5111418;28;20467;-75
2022/08/14 03:35:32;;;;;;;9.85;6.55;;;21.10;99.90;;;;;;5112746;28;20020;-76
2022/08/14 03:38:09;;;;;;;11.07;7.33;;;21.10;99.90;;;;;;5112604;28;20077;-75
2022/08/14 03:40:37;;;;;;;9.95;6.90;;;21.00;99.90;;;;;;5112267;28;20494;-75
2022/08/14 03:43:04;;;;;;;8.02;6.32;;;21.00;99.90;;;;;;5111417;28;20027;-74
2022/08/14 03:45:34;;;;;;;10.45;6.78;;;21.00;99.90;;;;;;5111091;28;20024;-74
2022/08/14 03:48:02;;;;;;;10.50;6.47;;;21.00;99.90;;;;;;5112879;28;20030;-75
2022/08/14 03:50:28;;;;;;;8.85;6.85;;;21.00;99.90;;;;;;5112246;28;20382;-75
2022/08/14 03:52:54;;;;;;;11.80;7.07;;;21.00;99.90;;;;;;5111423;28;20020;-75
2022/08/14 03:55:19;;;;;;;12.20;6.67;;;21.00;99.90;;;;;;5111316;28;20048;-74
2022/08/14 03:57:47;;;;;;;12.10;7.23;;;21.00;99.90;;;;;;5111165;28;20059;-75
2022/08/14 04:00:13;;;;;;;11.38;7.13;;;20.90;99.90;;;;;;5112240;28;20028;-75
2022/08/14 04:02:39;;;;;;;9.98;6.80;;;21.00;99.90;;;;;;5111755;28;20023;-74
2022/08/14 04:05:07;;;;;;;10.00;7.38;;;20.90;99.90;;;;;;5112385;28;20046;-75
2022/08/14 04:07:33;;;;;;;9.40;6.72;;;20.90;99.90;;;;;;5112373;28;20360;-76
2022/08/14 04:10:00;;;;;;;9.23;7.03;;;20.90;99.90;;;;;;5110351;28;20035;-75
2022/08/14 04:12:25;;;;;;;8.45;6.20;;;20.90;99.90;;;;;;5111314;28;20076;-75
2022/08/14 04:14:51;;;;;;;10.03;7.07;;;20.90;99.90;;;;;;5112604;28;20023;-75
2022/08/14 04:17:18;;;;;;;9.67;7.03;;;20.90;99.90;;;;;;5110851;28;20023;-74
2022/08/14 04:19:45;;;;;;;9.65;6.57;;;20.90;99.90;;;;;;5111991;28;20501;-74
2022/08/14 04:22:12;;;;;;;11.10;7.68;;;20.90;99.90;;;;;;5111433;28;20031;-75
2022/08/14 04:24:38;;;;;;;10.82;7.00;;;20.90;99.90;;;;;;5112157;28;20043;-75
2022/08/14 04:27:10;;;;;;;11.77;7.25;;;20.90;99.90;;;;;;5112101;28;20027;-75
2022/08/14 04:29:38;;;;;;;12.20;7.40;;;20.90;99.90;;;;;;5110465;28;20147;-75
2022/08/14 04:32:07;;;;;;;11.73;6.70;;;20.90;99.90;;;;;;5112110;28;20089;-76
2022/08/14 04:34:33;;;;;;;11.55;7.65;;;20.90;99.90;;;;;;5112103;28;20024;-74
2022/08/14 04:45:13;;;;;;;11.85;6.93;;;20.90;99.90;;;;;;5111608;28;20383;-75
2022/08/14 04:50:23;;;;;;;10.90;7.10;;;21.00;99.90;;;;;;5110831;28;20065;-76
2022/08/14 04:52:49;;;;;;;11.40;7.33;;;20.90;99.90;;;;;;5111208;28;20028;-75
2022/08/14 04:55:15;;;;;;;10.20;7.47;;;21.00;99.90;;;;;;5111382;28;20389;-76
2022/08/14 04:57:41;;;;;;;10.20;7.13;;;21.00;99.90;;;;;;5111118;28;20040;-75
2022/08/14 05:00:07;;;;;;;9.23;6.75;;;21.00;99.90;;;;;;5111609;28;20054;-75
2022/08/14 05:02:34;;;;;;;13.90;7.43;;;21.00;99.90;;;;;;5111131;28;20024;-76
2022/08/14 05:04:59;;;;;;;10.80;6.88;;;21.10;99.90;;;;;;5111617;28;20107;-74
2022/08/14 05:07:25;;;;;;;9.70;7.60;;;21.10;99.90;;;;;;5111486;28;20142;-75
2022/08/14 05:09:51;;;;;;;12.67;6.40;;;21.10;99.90;;;;;;5110876;28;20076;-75
2022/08/14 05:12:16;;;;;;;10.53;6.83;;;21.10;99.90;;;;;;5109352;28;20020;-76
2022/08/14 05:14:42;;;;;;;11.10;6.77;;;21.10;99.90;;;;;;5111011;28;20463;-75
2022/08/14 05:17:09;;;;;;;10.80;8.17;;;21.20;99.90;;;;;;5109573;28;20163;-76
2022/08/14 05:19:34;;;;;;;10.02;6.93;;;21.20;99.90;;;;;;5110557;28;20034;-76
2022/08/14 05:22:01;;;;;;;11.70;6.57;;;21.20;99.90;;;;;;5110456;28;20036;-75
2022/08/14 05:24:27;;;;;;;10.88;7.10;;;21.20;99.90;;;;;;5111074;28;20510;-75
2022/08/14 05:26:54;;;;;;;11.65;7.05;;;21.20;99.90;;;;;;5110710;28;20114;-75
2022/08/14 05:29:19;;;;;;;8.85;6.75;;;21.20;99.90;;;;;;5110639;28;20039;-75
2022/08/14 05:31:45;;;;;;;11.20;6.97;;;21.30;99.90;;;;;;5110723;28;20103;-75
2022/08/14 05:34:10;;;;;;;12.03;8.30;;;21.20;99.90;;;;;;5109286;28;20023;-76
2022/08/14 05:36:36;;;;;;;8.70;7.03;;;21.30;99.90;;;;;;5110932;28;20019;-77
2022/08/14 05:39:04;;;;;;;9.77;6.93;;;21.30;99.90;;;;;;5108749;28;20039;-74
2022/08/14 05:41:31;;;;;;;10.63;6.93;;;21.40;99.90;;;;;;5110569;28;20032;-75
2022/08/14 05:43:57;;;;;;;10.80;6.78;;;21.30;99.90;;;;;;5108754;28;20031;-75
2022/08/14 05:46:23;;;;;;;12.90;7.35;;;21.40;99.90;;;;;;5110649;28;20019;-74
2022/08/14 05:48:54;;;;;;;9.30;6.37;;;21.40;99.90;;;;;;5110254;28;20179;-75
2022/08/14 05:51:21;;;;;;;10.30;7.03;;;21.40;99.90;;;;;;5110602;28;20020;-75
2022/08/14 05:53:47;;;;;;;12.18;7.90;;;21.40;99.90;;;;;;5110381;28;20123;-75
2022/08/14 05:56:13;;;;;;;10.53;7.10;;;21.50;99.90;;;;;;5110052;28;20102;-75
2022/08/14 05:58:38;;;;;;;9.83;7.77;;;21.50;99.90;;;;;;5109105;28;20036;-75
2022/08/14 06:01:04;;;;;;;10.70;7.27;;;21.50;99.90;;;;;;5110521;28;20042;-74
2022/08/14 06:03:30;;;;;;;8.73;6.90;;;21.50;99.90;;;;;;5110554;28;20034;-75
2022/08/14 06:05:56;;;;;;;9.60;7.67;;;21.60;99.90;;;;;;5109122;28;20061;-74
2022/08/14 06:08:30;;;;;;;10.87;7.30;;;21.60;99.90;;;;;;5110408;28;20084;-76
2022/08/14 06:11:02;;;;;;;10.95;8.07;;;21.60;99.90;;;;;;5110391;28;20416;-75
2022/08/14 06:13:48;;;;;;;10.00;6.85;;;21.70;99.90;;;;;;5109035;28;20077;-75
2022/08/14 06:16:15;;;;;;;10.85;7.18;;;21.70;99.90;;;;;;5109613;28;20486;-74
2022/08/14 06:18:41;;;;;;;10.40;6.90;;;21.80;99.90;;;;;;5110029;28;20032;-75
2022/08/14 06:21:07;;;;;;;10.03;7.20;;;21.80;99.90;;;;;;5110273;28;20034;-74
2022/08/14 06:23:33;;;;;;;9.53;7.17;;;21.90;99.90;;;;;;5110055;28;20295;-75
2022/08/14 06:25:58;;;;;;;13.33;7.33;;;22.00;99.90;;;;;;5113702;28;20035;-75
2022/08/14 06:28:26;;;;;;;11.07;7.67;;;22.00;99.90;;;;;;5114313;28;20040;-75
2022/08/14 06:30:52;;;;;;;10.43;7.15;;;22.00;99.90;;;;;;5112196;28;20035;-75
2022/08/14 06:33:19;;;;;;;10.98;7.93;;;22.10;99.90;;;;;;5112648;28;20539;-75
2022/08/14 06:35:46;;;;;;;9.73;7.65;;;22.10;99.90;;;;;;5114186;27;20027;-75
2022/08/14 06:38:17;;;;;;;10.82;7.70;;;22.20;99.90;;;;;;5113559;28;20036;-75
2022/08/14 06:40:43;;;;;;;11.13;7.32;;;22.20;99.90;;;;;;5113904;28;20383;-75
2022/08/14 06:43:10;;;;;;;10.00;7.20;;;22.30;99.90;;;;;;5113687;28;20028;-76
2022/08/14 06:45:39;;;;;;;10.70;7.88;;;22.40;99.90;;;;;;5113218;28;20303;-75
2022/08/14 06:48:17;;;;;;;9.85;6.88;;;22.40;99.90;;;;;;5113322;28;20371;-75
2022/08/14 06:50:43;;;;;;;8.52;6.85;;;22.40;99.90;;;;;;5113813;27;20059;-76
2022/08/14 06:53:10;;;;;;;10.27;7.55;;;22.50;99.90;;;;;;5113357;27;20224;-75
2022/08/14 06:55:36;;;;;;;11.93;7.38;;;22.60;99.90;;;;;;5112197;28;20095;-75
2022/08/14 06:58:02;;;;;;;10.85;7.07;;;22.60;99.90;;;;;;5113460;28;20040;-76
2022/08/14 07:00:28;;;;;;;9.70;7.97;;;22.70;99.90;;;;;;5113045;28;20046;-75
2022/08/14 07:05:49;;;;;;;10.45;7.53;;;22.90;99.90;;;;;;5113762;28;20064;-75
2022/08/14 07:08:19;;;;;;;11.80;7.90;;;23.00;99.90;;;;;;5113238;28;20408;-75
2022/08/14 07:10:47;;;;;;;10.20;7.57;;;23.00;99.90;;;;;;5113131;28;20024;-76
2022/08/14 07:13:13;;;;;;;9.48;6.93;;;23.10;99.90;;;;;;5111824;28;20024;-75
2022/08/14 07:15:41;;;;;;;10.55;7.47;;;23.00;99.90;;;;;;5112561;28;20020;-75
2022/08/14 07:18:08;;;;;;;10.15;7.85;;;23.00;99.90;;;;;;5112849;28;20452;-76
2022/08/14 07:20:34;;;;;;;10.57;7.55;;;23.00;99.90;;;;;;5113214;28;20433;-75
2022/08/14 07:23:05;;;;;;;8.63;7.03;;;23.00;99.90;;;;;;5113121;28;20026;-75
2022/08/14 07:25:31;;;;;;;11.00;7.50;;;23.10;99.90;;;;;;5111203;28;20433;-75
2022/08/14 07:27:57;;;;;;;;;;;23.30;99.90;;;;;;5113582;28;20028;-75
2022/08/14 07:30:23;;;;;;;10.13;7.10;;;23.60;99.90;;;;;;5112511;27;20294;-75
2022/08/14 07:32:49;;;;;;;10.05;7.38;;;24.00;99.90;;;;;;5111743;28;20337;-75
2022/08/14 07:35:15;;;;;;;11.00;8.05;;;24.30;99.90;;;;;;5112603;28;20063;-76
2022/08/14 07:37:40;;;;;;;11.67;7.47;;;24.70;99.90;;;;;;5112830;28;20094;-76
2022/08/14 07:40:07;;;;;;;16.30;8.00;;;24.90;99.90;;;;;;5113067;28;20094;-76
2022/08/14 07:42:33;;;;;;;9.65;7.47;;;25.00;99.90;;;;;;5111404;28;20081;-75
2022/08/14 07:44:59;;;;;;;10.52;7.70;;;25.10;99.90;;;;;;5112460;28;20421;-74
2022/08/14 07:47:25;;;;;;;10.35;7.57;;;25.10;99.90;;;;;;5111832;28;20085;-74
2022/08/14 07:50:04;;;;;;;8.95;6.90;;;25.20;99.90;;;;;;5112641;28;20493;-74
2022/08/14 07:52:29;;;;;;;9.80;7.32;;;25.30;99.90;;;;;;5110886;28;20102;-75
2022/08/14 07:54:55;;;;;;;9.33;6.83;;;25.50;99.90;;;;;;5112532;28;20031;-75
2022/08/14 07:57:21;;;;;;;13.57;8.45;;;25.60;99.90;;;;;;5112231;28;20079;-75
2022/08/14 07:59:47;;;;;;;10.88;7.13;;;25.80;99.90;;;;;;5112491;28;20035;-75
2022/08/14 08:02:15;;;;;;;8.80;6.97;;;26.00;99.90;;;;;;5111609;28;20053;-75
2022/08/14 08:04:44;;;;;;;10.40;7.15;;;26.20;99.90;;;;;;5110868;28;20501;-76
2022/08/14 08:07:10;;;;;;;9.48;7.28;;;26.40;99.90;;;;;;5110732;28;20024;-76
2022/08/14 08:09:37;;;;;;;11.27;7.72;;;26.50;99.90;;;;;;5110139;28;20040;-76
2022/08/14 08:12:04;;;;;;;11.63;7.50;;;26.60;99.90;;;;;;5111863;28;20027;-76
2022/08/14 08:14:35;;;;;;;8.45;7.00;;;26.60;99.90;;;;;;5110344;28;20035;-76
2022/08/14 08:17:01;;;;;;;10.60;7.45;;;26.60;99.90;;;;;;5109717;28;20122;-75
2022/08/14 08:19:27;;;;;;;11.30;7.60;;;26.50;99.90;;;;;;5110432;28;20181;-75
2022/08/14 08:21:53;;;;;;;8.83;6.40;;;26.50;99.90;;;;;;5111854;28;20050;-75
2022/08/14 08:24:19;;;;;;;10.18;7.32;;;26.60;99.90;;;;;;5110409;28;20031;-75
2022/08/14 08:26:44;;;;;;;7.83;6.73;;;26.60;99.90;;;;;;5111267;28;20051;-74
2022/08/14 08:29:18;;;;;;;12.13;7.27;;;26.60;99.90;;;;;;5111768;28;20694;-74
2022/08/14 08:31:49;;;;;;;12.10;8.27;;;26.60;99.90;;;;;;5111113;28;20131;-74
2022/08/14 08:34:15;;;;;;;9.02;6.68;;;26.80;99.90;;;;;;5109632;28;20024;-74
2022/08/14 08:36:41;;;;;;;9.65;7.45;;;26.90;99.90;;;;;;5111280;28;20076;-74
2022/08/14 08:39:07;;;;;;;11.60;6.82;;;27.10;99.90;;;;;;5110037;28;20031;-75
2022/08/14 08:41:46;;;;;;;10.93;7.13;;;27.20;99.90;;;;;;5111018;27;20043;-75
2022/08/14 08:44:12;;;;;;;9.43;7.07;;;27.10;99.90;;;;;;5111302;28;20028;-75
2022/08/14 08:46:38;;;;;;;9.82;7.50;;;27.00;99.90;;;;;;5109174;28;20028;-75
2022/08/14 08:49:05;;;;;;;8.85;6.57;;;27.30;99.90;;;;;;5108921;28;20068;-75
2022/08/14 08:51:39;;;;;;;12.52;8.40;;;27.40;99.90;;;;;;5111255;28;20506;-75
2022/08/14 08:54:15;;;;;;;10.10;7.55;;;27.20;99.90;;;;;;5109841;28;20391;-75
2022/08/14 08:56:49;;;;;;;9.70;7.35;;;27.20;99.90;;;;;;5109308;28;20520;-75
2022/08/14 08:59:32;;;;;;;9.65;7.28;;;27.40;99.90;;;;;;5109580;28;20516;-75
2022/08/14 09:02:00;;;;;;;10.23;7.15;;;27.60;99.90;;;;;;5110526;28;20566;-75
2022/08/14 09:04:28;;;;;;;8.93;7.25;;;27.80;99.90;;;;;;5110344;28;20581;-75
2022/08/14 09:06:55;;;;;;;9.55;7.53;;;28.00;99.90;;;;;;5109689;28;20104;-75
2022/08/14 09:09:28;;;;;;;10.13;7.00;;;28.20;99.90;;;;;;5111212;28;20027;-75
2022/08/14 09:11:55;;;;;;;10.18;7.03;;;28.40;99.90;;;;;;5110850;28;20035;-76
2022/08/14 09:14:22;;;;;;;7.93;6.82;;;28.70;99.90;;;;;;5111227;28;20023;-75
2022/08/14 09:16:49;;;;;;;9.57;7.03;;;29.00;99.90;;;;;;5110109;28;20483;-75
2022/08/14 09:19:15;;;;;;;7.47;6.47;;;29.10;99.90;;;;;;5092741;28;20024;-76
2022/08/14 09:21:41;;;;;;;10.77;6.78;;;29.20;99.90;;;;;;5109338;28;20030;-77
2022/08/14 09:24:08;;;;;;;9.13;7.22;;;29.30;99.90;;;;;;5109484;28;20035;-77
2022/08/14 09:26:35;;;;;;;7.88;6.75;;;29.30;99.90;;;;;;5110496;28;20024;-77
2022/08/14 09:29:01;;;;;;;9.93;6.85;;;29.40;99.90;;;;;;5109345;28;20031;-77
2022/08/14 09:31:28;;;;;;;13.32;7.90;;;29.40;99.90;;;;;;5110752;28;20038;-75
2022/08/14 09:33:59;;;;;;;10.57;7.05;;;29.40;99.90;;;;;;5110550;28;20087;-75
2022/08/14 09:36:31;;;;;;;9.95;6.50;;;29.40;99.90;;;;;;5110675;28;20052;-76
2022/08/14 09:39:15;;;;;;;8.15;6.80;;;29.20;99.90;;;;;;5110613;28;20040;-75
2022/08/14 09:42:09;;;;;;;8.73;7.03;;;29.10;99.90;;;;;;5110317;28;20532;-75
2022/08/14 09:44:47;;;;;;;13.10;7.15;;;29.00;99.90;;;;;;5101316;28;20044;-76
2022/08/14 09:47:16;;;;;;;7.63;6.63;;;29.00;99.90;;;;;;5108753;28;20471;-74
2022/08/14 09:49:42;;;;;;;10.73;8.68;;;28.90;99.90;;;;;;5104944;28;20028;-75
2022/08/14 09:52:09;;;;;;;;;;;28.90;99.90;;;;;;5110728;28;20055;-76
2022/08/14 09:54:44;;;;;;;10.70;6.67;;;28.80;99.90;;;;;;5110599;28;19911;-75
2022/08/14 09:57:24;;;;;;;9.38;6.88;;;28.70;99.90;;;;;;5109913;28;20058;-74
2022/08/14 09:59:50;;;;;;;9.07;6.35;;;28.60;99.90;;;;;;5112458;28;20043;-75
2022/08/14 10:02:26;;;;;;;10.23;6.55;;;28.60;99.90;;;;;;5114388;28;20368;-75
2022/08/14 10:04:59;;;;;;;7.05;5.60;;;28.80;99.90;;;;;;5093960;28;20119;-75
2022/08/14 10:07:36;;;;;;;7.35;6.25;;;28.70;99.90;;;;;;5094312;28;20046;-76
2022/08/14 10:10:04;;;;;;;11.02;6.63;;;28.70;99.90;;;;;;5094492;28;20028;-76
2022/08/14 10:12:43;;;;;;;7.63;6.30;;;28.80;99.90;;;;;;5106242;28;20042;-75
2022/08/14 10:15:20;;;;;;;8.93;7.00;;;28.70;99.90;;;;;;5113061;28;20023;-77
2022/08/14 10:17:47;;;;;;;;;;;28.50;99.90;;;;;;5114375;28;20099;-76
2022/08/14 10:20:14;;;;;;;11.15;6.65;;;28.30;99.90;;;;;;5114313;28;20363;-76
2022/08/14 10:22:41;;;;;;;10.50;6.68;;;27.90;99.90;;;;;;5114278;28;20450;-76
2022/08/14 10:25:14;;;;;;;8.60;6.85;;;28.30;99.90;;;;;;5114913;28;20038;-75
2022/08/14 10:27:40;;;;;;;8.35;5.93;;;28.70;99.90;;;;;;5113940;28;20062;-75
2022/08/14 10:30:16;;;;;;;8.25;6.78;;;29.30;99.90;;;;;;5114410;28;20028;-76
2022/08/14 10:32:47;;;;;;;7.72;5.95;;;29.60;99.90;;;;;;5113892;27;20023;-75
2022/08/14 10:35:13;;;;;;;8.18;6.15;;;29.60;99.90;;;;;;5112057;28;20035;-75
2022/08/14 10:37:50;;;;;;;7.78;6.32;;;29.30;99.90;;;;;;5113879;28;20073;-76
2022/08/14 10:40:30;;;;;;;7.95;6.60;;;28.90;99.90;;;;;;5113848;28;20035;-76
2022/08/14 10:42:56;;;;;;;12.40;6.10;;;29.00;99.90;;;;;;5113626;28;20027;-74
2022/08/14 10:45:33;;;;;;;9.27;6.68;;;29.20;99.90;;;;;;5112204;28;20510;-75
2022/08/14 10:48:00;;;;;;;9.23;5.85;;;29.60;99.90;;;;;;5113214;28;20149;-74
2022/08/14 10:50:34;;;;;;;10.07;6.10;;;29.80;99.90;;;;;;5113483;28;20034;-75
2022/08/14 10:53:04;;;;;;;8.10;6.38;;;29.90;99.90;;;;;;5113328;28;20026;-75
2022/08/14 10:55:38;;;;;;;7.97;6.32;;;29.80;99.90;;;;;;5112305;28;20027;-75
2022/08/14 10:58:12;;;;;;;7.38;5.65;;;29.90;99.90;;;;;;5111569;28;20472;-76
2022/08/14 11:00:40;;;;;;;9.40;6.30;;;30.00;99.90;;;;;;5113664;28;20054;-75
2022/08/14 11:03:08;;;;;;;7.78;5.35;;;29.90;99.90;;;;;;5113197;28;20035;-75
2022/08/14 11:05:41;;;;;;;8.38;6.35;;;29.70;99.90;;;;;;5111550;28;20565;-74
2022/08/14 11:08:07;;;;;;;9.68;6.43;;;29.60;99.90;;;;;;5113476;28;20036;-75
2022/08/14 11:10:44;;;;;;;;;;;29.50;99.90;;;;;;5112960;28;20023;-75
2022/08/14 11:13:17;;;;;;;8.32;6.13;;;29.50;99.90;;;;;;5111617;28;19915;-75
2022/08/14 11:15:45;;;;;;;8.57;6.22;;;29.20;99.90;;;;;;5112801;28;20047;-75
2022/08/14 11:18:11;;;;;;;8.13;6.68;;;28.80;99.90;;;;;;5113116;28;20336;-75
2022/08/14 11:20:38;;;;;;;9.88;6.28;;;28.60;99.90;;;;;;5112106;28;20084;-75
2022/08/14 11:23:06;;;;;;;10.45;6.55;;;28.40;99.90;;;;;;5111372;28;20620;-73
2022/08/14 11:25:35;;;;;;;11.52;6.53;;;28.40;99.90;;;;;;5112312;28;20067;-75
2022/08/14 11:28:01;;;;;;;11.27;7.13;;;28.80;99.90;;;;;;5112577;28;20073;-76
2022/08/14 11:30:29;;;;;;;11.75;6.50;;;29.30;99.90;;;;;;5112796;28;20019;-75
2022/08/14 11:32:56;;;;;;;8.25;6.32;;;29.70;99.90;;;;;;5112695;28;20459;-75
2022/08/14 11:35:25;;;;;;;10.95;6.22;;;30.00;99.90;;;;;;5112298;27;20047;-75
2022/08/14 11:38:02;;;;;;;9.10;6.07;;;30.10;99.90;;;;;;5112415;28;20103;-74
2022/08/14 11:40:33;;;;;;;8.70;6.20;;;30.10;99.90;;;;;;5112501;28;20070;-74
2022/08/14 11:43:01;;;;;;;10.13;6.55;;;30.20;99.90;;;;;;5112039;28;20059;-75
2022/08/14 11:45:33;;;;;;;9.05;5.82;;;30.50;99.90;;;;;;5112369;28;20034;-75
2022/08/14 11:48:01;;;;;;;7.75;5.80;;;30.80;99.90;;;;;;5112369;28;20023;-75
2022/08/14 11:50:33;;;;;;;8.15;5.90;;;30.70;99.90;;;;;;5111539;28;20539;-75
2022/08/14 11:53:01;;;;;;;10.82;5.95;;;30.50;99.90;;;;;;5111047;28;20023;-75
2022/08/14 11:55:33;;;;;;;9.35;6.47;;;30.40;99.90;;;;;;5112241;28;20031;-75
2022/08/14 11:58:04;;;;;;;7.95;6.60;;;30.30;99.90;;;;;;5110303;28;20065;-75
2022/08/14 12:00:30;;;;;;;8.30;6.60;;;30.30;99.90;;;;;;5112157;28;20040;-75
2022/08/14 12:02:58;;;;;;;10.60;6.43;;;30.30;99.90;;;;;;5111303;28;20106;-75
2022/08/14 12:05:32;;;;;;;8.85;6.18;;;30.20;99.90;;;;;;5112152;28;20035;-76
2022/08/14 12:07:59;;;;;;;8.32;5.60;;;30.30;99.90;;;;;;5111022;28;20083;-76
2022/08/14 12:10:25;;;;;;;9.32;6.15;;;30.30;99.90;;;;;;5110763;28;20078;-76
2022/08/14 12:12:55;;;;;;;9.98;5.90;;;30.40;99.90;;;;;;5110844;28;20020;-76
2022/08/14 12:15:34;;;;;;;8.23;5.60;;;30.10;99.90;;;;;;5112136;28;20475;-75
2022/08/14 12:18:01;;;;;;;8.57;5.40;;;30.00;99.90;;;;;;5111862;28;20015;-75
2022/08/14 12:20:37;;;;;;;7.63;5.68;;;29.70;99.90;;;;;;5111543;28;20479;-75
2022/08/14 12:23:19;;;;;;;10.45;6.10;;;29.10;99.90;;;;;;5109925;28;20024;-76
2022/08/14 12:25:44;;;;;;;14.65;6.18;;;28.80;99.90;;;;;;5111784;28;20048;-75
2022/08/14 12:28:12;;;;;;;8.90;6.77;;;28.70;99.90;;;;;;5111605;28;20031;-76
2022/08/14 12:30:41;;;;;;;7.82;6.00;;;28.60;99.90;;;;;;5111415;28;20299;-75
2022/08/14 12:33:31;;;;;;;8.88;6.30;;;28.50;99.90;;;;;;5110205;28;20036;-76
2022/08/14 12:35:59;;;;;;;8.50;6.18;;;28.40;99.90;;;;;;5110361;28;20019;-76
2022/08/14 12:38:44;;;;;;;9.07;6.05;;;28.50;99.90;;;;;;5110569;28;20424;-75
2022/08/14 12:41:13;;;;;;;10.50;6.13;;;28.30;99.90;;;;;;5111555;28;20028;-75
2022/08/14 12:43:52;;;;;;;11.52;6.07;;;28.10;99.90;;;;;;5111303;28;20043;-75
2022/08/14 12:46:24;;;;;;;11.73;6.32;;;28.00;99.90;;;;;;5111543;28;20485;-75
2022/08/14 12:48:50;;;;;;;7.38;5.65;;;28.00;99.90;;;;;;5111526;28;20072;-74
2022/08/14 12:51:19;;;;;;;9.57;6.90;;;27.90;99.90;;;;;;5108377;28;20043;-68
2022/08/14 12:53:45;;;;;;;8.10;6.32;;;27.80;99.90;;;;;;5108291;28;20055;-69
2022/08/14 12:56:12;;;;;;;15.13;6.72;;;27.70;99.90;;;;;;5104894;28;20032;-69
2022/08/14 12:58:43;;;;;;;7.63;5.63;;;27.70;99.90;;;;;;5111637;28;20062;-70
2022/08/14 13:01:17;;;;;;;9.73;5.90;;;27.70;99.90;;;;;;5108696;28;20367;-70
2022/08/14 13:03:44;;;;;;;8.25;5.78;;;27.70;99.90;;;;;;5109655;28;20051;-70
2022/08/14 13:06:13;;;;;;;9.60;6.53;;;27.60;99.90;;;;;;5112530;28;20061;-69